Time;durP1;ratioP1;P1;durP2;ratioP2;P2;SDS_P1;SDS_P2;PMS_P1;PMS_P2;Temp;Humidity;BMP_temperature;BMP_pressure;BME280_temperature;BME280_humidity;BME280_pressure;Samples;Min_cycle;Max_cycle;Signal;HPM_P1;HPM_P2
2023/07/07 00:01:15;;;;;;;3.03;1.45;;;16.00;99.90;;;;;;4857941;29;20053;-59
2023/07/07 00:03:43;;;;;;;6.30;1.80;;;15.90;99.90;;;;;;4853661;29;20374;-60
2023/07/07 00:06:10;;;;;;;8.32;1.77;;;15.90;99.90;;;;;;4854685;29;20046;-58
2023/07/07 00:08:38;;;;;;;6.95;1.90;;;15.80;99.90;;;;;;4843941;29;20060;-59
2023/07/07 00:11:06;;;;;;;4.57;1.92;;;15.80;99.90;;;;;;4856907;29;20041;-58
2023/07/07 00:13:35;;;;;;;6.18;1.75;;;15.80;99.90;;;;;;4857376;29;20054;-59
2023/07/07 00:16:03;;;;;;;4.38;1.85;;;15.70;99.90;;;;;;4858340;29;20057;-60
2023/07/07 00:18:31;;;;;;;5.43;1.75;;;15.70;99.90;;;;;;4851367;29;20352;-60
2023/07/07 00:21:00;;;;;;;5.63;2.22;;;15.60;99.90;;;;;;4853651;29;20068;-60
2023/07/07 00:23:32;;;;;;;5.03;1.55;;;15.60;99.90;;;;;;4843957;29;20050;-59
2023/07/07 00:26:03;;;;;;;8.75;2.05;;;15.50;99.90;;;;;;4855254;29;20068;-58
2023/07/07 00:28:32;;;;;;;5.88;2.38;;;15.50;99.90;;;;;;4854756;29;20831;-63
2023/07/07 00:31:00;;;;;;;6.55;1.92;;;15.50;99.90;;;;;;4838444;29;20050;-59
2023/07/07 00:33:28;;;;;;;4.93;1.70;;;15.40;99.90;;;;;;4853964;29;20045;-58
2023/07/07 00:35:56;;;;;;;6.00;2.25;;;15.20;99.90;;;;;;4853824;29;20057;-59
2023/07/07 00:38:25;;;;;;;7.43;1.80;;;15.40;99.90;;;;;;4841261;29;20054;-59
2023/07/07 00:40:53;;;;;;;4.55;1.90;;;15.30;99.90;;;;;;4854726;29;20045;-58
2023/07/07 00:43:21;;;;;;;9.95;2.47;;;15.30;99.90;;;;;;4854131;29;20399;-60
2023/07/07 00:45:49;;;;;;;5.45;2.20;;;15.30;99.90;;;;;;4854780;29;20545;-60
2023/07/07 00:48:44;;;;;;;5.03;2.35;;;15.20;99.90;;;;;;4853948;29;20053;-59
2023/07/07 00:51:21;;;;;;;7.40;2.30;;;15.20;99.90;;;;;;4852888;29;20061;-59
2023/07/07 00:53:51;;;;;;;3.00;1.77;;;15.10;99.90;;;;;;4847996;29;20050;-58
2023/07/07 00:56:25;;;;;;;6.05;2.15;;;15.10;99.90;;;;;;4847291;29;20072;-58
2023/07/07 00:59:02;;;;;;;4.88;1.95;;;15.10;99.90;;;;;;4853658;29;20060;-59
2023/07/07 01:01:30;;;;;;;5.20;2.00;;;15.00;99.90;;;;;;4852661;29;20060;-59
2023/07/07 01:04:03;;;;;;;2.92;2.05;;;15.00;99.90;;;;;;4853943;29;20050;-59
2023/07/07 01:06:35;;;;;;;7.82;2.20;;;14.90;99.90;;;;;;4854143;29;20053;-63
2023/07/07 01:09:08;;;;;;;3.58;2.15;;;15.00;99.90;;;;;;4836364;29;20072;-58
2023/07/07 01:11:38;;;;;;;5.10;1.90;;;15.00;99.90;;;;;;4849998;29;20049;-59
2023/07/07 01:14:11;;;;;;;6.43;2.75;;;15.00;99.90;;;;;;4852016;29;20054;-59
2023/07/07 01:17:12;;;;;;;5.22;2.45;;;14.90;99.90;;;;;;4852945;29;20422;-59
2023/07/07 01:19:58;;;;;;;3.08;1.60;;;14.90;99.90;;;;;;4860925;29;20080;-59
2023/07/07 01:22:38;;;;;;;4.43;2.08;;;14.80;99.90;;;;;;4851554;29;20053;-61
2023/07/07 01:25:22;;;;;;;;;;;14.80;99.90;;;;;;4863484;29;20042;-60
2023/07/07 01:28:38;;;;;;;4.50;2.20;;;14.80;99.90;;;;;;4857096;29;20369;-61
2023/07/07 01:31:09;;;;;;;3.45;1.80;;;14.80;99.90;;;;;;4852394;29;20042;-61
2023/07/07 01:33:38;;;;;;;3.75;1.67;;;14.70;99.90;;;;;;4839839;29;20057;-61
2023/07/07 01:36:06;;;;;;;6.30;1.98;;;14.70;99.90;;;;;;4855640;29;20121;-61
2023/07/07 01:38:43;;;;;;;4.63;2.20;;;14.70;99.90;;;;;;4855660;29;20054;-60
2023/07/07 01:41:27;;;;;;;5.38;2.08;;;14.70;99.90;;;;;;4858786;29;20054;-60
2023/07/07 01:44:27;;;;;;;5.05;2.00;;;14.60;99.90;;;;;;4858068;29;20058;-61
2023/07/07 01:47:10;;;;;;;7.07;2.33;;;14.60;99.90;;;;;;4856964;29;20050;-60
2023/07/07 01:50:12;;;;;;;4.03;2.15;;;14.60;99.90;;;;;;4843156;29;20065;-60
2023/07/07 01:52:54;;;;;;;8.52;1.90;;;14.50;99.90;;;;;;4859483;29;20642;-61
2023/07/07 01:55:25;;;;;;;16.38;2.50;;;14.50;99.90;;;;;;4873958;29;20685;-61
2023/07/07 01:58:01;;;;;;;5.13;2.08;;;14.40;99.90;;;;;;4841607;29;20053;-60
2023/07/07 02:00:31;;;;;;;6.35;1.77;;;14.40;99.90;;;;;;4858714;29;20049;-61
2023/07/07 02:03:00;;;;;;;5.82;2.20;;;14.40;99.90;;;;;;4859690;29;20050;-62
2023/07/07 02:05:28;;;;;;;5.88;2.03;;;14.40;99.90;;;;;;4858311;29;20056;-61
2023/07/07 02:07:58;;;;;;;7.72;2.10;;;14.40;99.90;;;;;;4859554;29;20052;-61
2023/07/07 02:10:27;;;;;;;4.05;1.95;;;14.30;99.90;;;;;;4858470;29;20053;-61
2023/07/07 02:12:54;;;;;;;3.45;1.92;;;14.30;99.90;;;;;;4856946;29;20489;-60
2023/07/07 02:15:22;;;;;;;7.03;2.25;;;14.30;99.90;;;;;;4860315;29;20046;-61
2023/07/07 02:17:50;;;;;;;7.13;2.30;;;14.30;99.90;;;;;;4840079;29;20057;-60
2023/07/07 02:20:18;;;;;;;3.22;2.20;;;14.20;99.90;;;;;;4840121;29;20505;-61
2023/07/07 02:22:46;;;;;;;6.07;2.22;;;14.30;99.90;;;;;;4840927;29;20054;-64
2023/07/07 02:25:14;;;;;;;3.80;1.83;;;14.20;99.90;;;;;;4843988;29;20049;-61
2023/07/07 02:27:42;;;;;;;4.95;2.05;;;14.20;99.90;;;;;;4855609;29;20050;-60
2023/07/07 02:30:10;;;;;;;4.30;2.20;;;14.20;99.90;;;;;;4856521;29;20615;-60
2023/07/07 02:32:38;;;;;;;4.90;2.00;;;14.10;99.90;;;;;;4857621;29;20070;-60
2023/07/07 02:35:06;;;;;;;11.50;2.08;;;14.10;99.90;;;;;;4858061;29;20052;-60
2023/07/07 02:37:34;;;;;;;8.07;2.10;;;14.10;99.90;;;;;;4859194;29;20135;-60
2023/07/07 02:40:03;;;;;;;6.35;1.65;;;14.10;99.90;;;;;;4857300;29;20045;-61
2023/07/07 02:42:31;;;;;;;4.75;1.92;;;14.10;99.90;;;;;;4857459;29;20056;-62
2023/07/07 02:44:59;;;;;;;4.80;1.70;;;14.10;99.90;;;;;;4859508;29;20057;-61
2023/07/07 02:47:29;;;;;;;6.75;2.10;;;14.10;99.90;;;;;;4859242;29;20053;-61
2023/07/07 02:49:57;;;;;;;7.97;2.78;;;14.10;99.90;;;;;;4857945;29;20533;-61
2023/07/07 02:52:25;;;;;;;3.88;2.30;;;14.10;99.90;;;;;;4858270;29;20056;-61
2023/07/07 02:54:53;;;;;;;9.38;2.28;;;14.10;99.90;;;;;;4857020;29;20049;-61
2023/07/07 02:57:21;;;;;;;6.95;2.72;;;14.10;99.90;;;;;;4858046;29;20049;-61
2023/07/07 02:59:49;;;;;;;6.75;1.95;;;14.10;99.90;;;;;;4858526;29;20049;-60
2023/07/07 03:02:17;;;;;;;6.93;2.33;;;14.10;99.90;;;;;;4862811;29;20049;-64
2023/07/07 03:04:47;;;;;;;4.85;1.80;;;14.10;99.90;;;;;;4863088;29;20061;-61
2023/07/07 03:07:15;;;;;;;3.50;1.90;;;14.10;99.90;;;;;;4862345;29;20068;-62
2023/07/07 03:09:43;;;;;;;6.28;2.47;;;14.10;99.90;;;;;;4861600;29;20053;-61
2023/07/07 03:12:11;;;;;;;8.63;2.03;;;14.10;99.90;;;;;;4851851;29;20050;-61
2023/07/07 03:14:40;;;;;;;4.07;1.98;;;14.10;99.90;;;;;;4875107;29;20041;-65
2023/07/07 03:17:09;;;;;;;5.18;2.15;;;14.20;99.90;;;;;;4876988;29;20495;-60
2023/07/07 03:19:42;;;;;;;7.93;2.20;;;14.10;99.90;;;;;;4861283;29;20127;-61
2023/07/07 03:22:16;;;;;;;7.75;2.78;;;14.20;99.90;;;;;;4860560;29;20075;-61
2023/07/07 03:24:52;;;;;;;8.90;2.22;;;14.10;99.90;;;;;;4845993;29;20053;-61
2023/07/07 03:27:41;;;;;;;6.10;2.38;;;14.10;99.90;;;;;;4862253;29;20493;-61
2023/07/07 03:30:16;;;;;;;7.82;2.33;;;14.10;99.90;;;;;;4861998;29;20057;-65
2023/07/07 03:33:04;;;;;;;2.78;1.90;;;14.20;99.90;;;;;;4861114;29;20054;-61
2023/07/07 03:35:32;;;;;;;3.58;2.00;;;14.20;99.90;;;;;;4860471;29;20049;-61
2023/07/07 03:38:00;;;;;;;8.57;2.30;;;14.10;99.90;;;;;;4861193;29;20041;-62
2023/07/07 03:40:29;;;;;;;3.92;1.70;;;14.20;99.90;;;;;;4860927;29;20414;-61
2023/07/07 03:42:57;;;;;;;6.55;2.20;;;14.10;99.90;;;;;;4875944;29;20057;-60
2023/07/07 03:45:26;;;;;;;3.13;1.83;;;14.10;99.90;;;;;;4876381;29;20045;-60
2023/07/07 03:47:58;;;;;;;5.93;2.50;;;14.10;99.90;;;;;;4860997;29;20391;-60
2023/07/07 03:50:25;;;;;;;5.00;2.10;;;14.10;99.90;;;;;;4874098;29;20049;-61
2023/07/07 03:52:54;;;;;;;4.00;1.80;;;14.00;99.90;;;;;;4859835;29;20045;-61
2023/07/07 03:55:22;;;;;;;9.35;2.13;;;14.00;99.90;;;;;;4862102;29;20053;-61
2023/07/07 03:57:49;;;;;;;4.47;2.00;;;14.00;99.90;;;;;;4862010;29;20060;-60
2023/07/07 04:00:18;;;;;;;5.57;1.98;;;13.90;99.90;;;;;;4876274;29;20046;-61
2023/07/07 04:02:47;;;;;;;4.70;1.67;;;13.90;99.90;;;;;;4876086;29;20422;-61
2023/07/07 04:05:18;;;;;;;6.93;1.95;;;13.90;99.90;;;;;;4861016;29;20053;-62
2023/07/07 04:07:46;;;;;;;6.38;2.22;;;13.90;99.90;;;;;;4861657;29;20049;-64
2023/07/07 04:10:16;;;;;;;4.95;2.20;;;13.90;99.90;;;;;;4860593;29;20054;-61
2023/07/07 04:12:44;;;;;;;3.38;2.15;;;13.90;99.90;;;;;;4860635;29;20514;-61
2023/07/07 04:15:12;;;;;;;6.35;2.10;;;13.90;99.90;;;;;;4860124;29;20045;-61
2023/07/07 04:17:40;;;;;;;9.43;2.40;;;13.90;99.90;;;;;;4859338;29;20049;-61
2023/07/07 04:20:08;;;;;;;4.13;1.95;;;13.90;99.90;;;;;;4861524;29;20545;-61
2023/07/07 04:22:36;;;;;;;3.30;2.45;;;13.80;99.90;;;;;;4860482;29;20042;-61
2023/07/07 04:25:14;;;;;;;6.03;2.45;;;13.80;99.90;;;;;;4860156;29;20053;-61
2023/07/07 04:27:43;;;;;;;4.57;2.38;;;13.80;99.90;;;;;;4844743;29;20057;-61
2023/07/07 04:30:11;;;;;;;6.68;2.45;;;13.80;99.90;;;;;;4861145;29;20054;-60
2023/07/07 04:32:40;;;;;;;5.70;1.95;;;13.80;99.90;;;;;;4860354;29;20066;-61
2023/07/07 04:35:08;;;;;;;5.03;2.13;;;13.80;99.90;;;;;;4860952;29;20057;-60
2023/07/07 04:37:36;;;;;;;7.03;2.25;;;13.70;99.90;;;;;;4858405;29;20045;-60
2023/07/07 04:40:04;;;;;;;5.60;2.30;;;13.70;99.90;;;;;;4860182;29;20053;-60
2023/07/07 04:42:32;;;;;;;10.82;2.63;;;13.70;99.90;;;;;;4861034;29;20063;-61
2023/07/07 04:44:59;;;;;;;7.50;2.75;;;13.70;99.90;;;;;;4860982;29;20049;-61
2023/07/07 04:47:27;;;;;;;4.82;2.40;;;13.70;99.90;;;;;;4856480;29;20049;-64
2023/07/07 04:49:56;;;;;;;5.05;2.30;;;13.70;99.90;;;;;;4839350;29;20053;-61
2023/07/07 04:52:23;;;;;;;9.85;2.95;;;13.70;99.90;;;;;;4839386;29;20076;-61
2023/07/07 04:54:51;;;;;;;7.70;2.40;;;13.70;99.90;;;;;;4850384;29;20053;-62
2023/07/07 04:57:19;;;;;;;6.30;2.40;;;13.70;99.90;;;;;;4857368;29;21095;-66
2023/07/07 04:59:47;;;;;;;7.75;2.45;;;13.70;99.90;;;;;;4857934;29;20057;-62
2023/07/07 05:02:14;;;;;;;6.93;2.47;;;13.70;99.90;;;;;;4852508;29;20059;-61
2023/07/07 05:04:42;;;;;;;10.43;2.72;;;13.80;99.90;;;;;;4847869;29;20228;-61
2023/07/07 05:07:10;;;;;;;8.00;2.67;;;13.80;99.90;;;;;;4854633;29;20053;-60
2023/07/07 05:09:38;;;;;;;5.47;2.40;;;13.80;99.90;;;;;;4855393;29;20049;-60
2023/07/07 05:12:09;;;;;;;4.60;2.83;;;13.90;99.90;;;;;;4855229;29;20514;-60
2023/07/07 05:14:37;;;;;;;6.28;2.58;;;13.80;99.90;;;;;;4854736;29;20060;-60
2023/07/07 05:17:05;;;;;;;4.88;2.40;;;13.90;99.90;;;;;;4855746;29;20061;-60
2023/07/07 05:19:32;;;;;;;5.55;2.25;;;13.90;99.90;;;;;;4840902;29;20046;-61
2023/07/07 05:22:00;;;;;;;5.53;2.58;;;13.90;99.90;;;;;;4837657;29;20058;-61
2023/07/07 05:24:28;;;;;;;8.38;3.60;;;13.90;99.90;;;;;;4852949;29;20049;-61
2023/07/07 05:26:56;;;;;;;7.63;3.17;;;14.00;99.90;;;;;;4852984;29;20061;-61
2023/07/07 05:29:23;;;;;;;9.98;3.05;;;14.00;99.90;;;;;;4853405;29;20049;-60
2023/07/07 05:31:52;;;;;;;9.02;3.00;;;14.10;99.90;;;;;;4855282;29;20054;-60
2023/07/07 05:34:19;;;;;;;4.97;2.60;;;14.10;99.90;;;;;;4842606;29;20054;-60
2023/07/07 05:36:47;;;;;;;6.72;2.53;;;14.10;99.90;;;;;;4851565;29;20076;-60
2023/07/07 05:39:15;;;;;;;8.00;2.90;;;14.20;99.90;;;;;;4853476;29;20046;-61
2023/07/07 05:41:42;;;;;;;7.68;2.72;;;14.20;99.90;;;;;;4853930;29;20552;-65
2023/07/07 05:44:10;;;;;;;9.65;2.63;;;14.30;99.90;;;;;;4853060;29;20049;-68
2023/07/07 05:46:38;;;;;;;10.45;3.90;;;14.30;99.90;;;;;;4854826;29;20053;-59
2023/07/07 05:49:06;;;;;;;10.80;2.83;;;14.40;99.90;;;;;;4848615;29;20631;-60
2023/07/07 05:51:33;;;;;;;6.68;2.78;;;14.40;99.90;;;;;;4852454;29;20037;-59
2023/07/07 05:54:01;;;;;;;7.65;3.28;;;14.50;99.90;;;;;;4851762;29;20045;-58
2023/07/07 05:56:30;;;;;;;7.47;3.13;;;14.50;99.90;;;;;;4854497;29;20049;-60
2023/07/07 05:58:58;;;;;;;6.13;2.33;;;14.60;99.90;;;;;;4869934;29;20050;-60
2023/07/07 06:01:26;;;;;;;5.43;3.35;;;14.60;99.90;;;;;;4854548;29;20498;-61
2023/07/07 06:03:54;;;;;;;6.80;2.58;;;14.70;99.90;;;;;;4844667;29;20045;-59
2023/07/07 06:06:22;;;;;;;7.70;2.50;;;14.80;99.90;;;;;;4850268;29;20057;-58
2023/07/07 06:08:50;;;;;;;5.97;2.80;;;14.80;99.90;;;;;;4855871;29;20050;-59
2023/07/07 06:11:17;;;;;;;8.30;3.10;;;14.70;99.90;;;;;;4853797;29;20244;-59
2023/07/07 06:13:45;;;;;;;9.90;2.92;;;14.90;99.90;;;;;;4851864;29;20061;-60
2023/07/07 06:16:14;;;;;;;6.95;2.30;;;15.00;99.90;;;;;;4852707;29;20069;-59
2023/07/07 06:18:42;;;;;;;8.15;4.03;;;15.00;99.90;;;;;;4835175;29;20394;-60
2023/07/07 06:21:09;;;;;;;6.55;2.65;;;15.10;99.90;;;;;;4844003;29;20339;-59
2023/07/07 06:23:37;;;;;;;6.20;2.72;;;15.20;99.90;;;;;;4869943;29;20049;-59
2023/07/07 06:26:05;;;;;;;8.55;3.03;;;15.20;99.90;;;;;;4856047;29;20049;-58
2023/07/07 06:28:32;;;;;;;12.57;3.33;;;15.20;99.90;;;;;;4856077;29;20049;-59
2023/07/07 06:31:00;;;;;;;9.60;3.03;;;15.30;99.90;;;;;;4854593;29;20045;-62
2023/07/07 06:33:28;;;;;;;6.20;2.70;;;15.30;99.90;;;;;;4851230;29;20505;-59
2023/07/07 06:35:56;;;;;;;6.78;2.58;;;15.40;99.90;;;;;;4848704;29;20174;-58
2023/07/07 06:38:24;;;;;;;6.03;2.85;;;15.40;99.90;;;;;;4847574;29;20050;-59
2023/07/07 06:40:52;;;;;;;5.15;2.67;;;15.50;99.90;;;;;;4851781;29;20053;-59
2023/07/07 06:43:20;;;;;;;10.00;2.85;;;15.50;99.90;;;;;;4853145;29;20079;-58
2023/07/07 06:45:50;;;;;;;9.75;2.70;;;15.60;99.90;;;;;;4839651;29;20062;-59
2023/07/07 06:48:17;;;;;;;4.70;2.60;;;15.60;99.90;;;;;;4847446;29;20065;-59
2023/07/07 06:50:45;;;;;;;42.38;4.82;;;15.70;99.90;;;;;;4838521;29;20305;-60
2023/07/07 06:53:13;;;;;;;22.40;3.05;;;15.70;99.90;;;;;;4846356;29;20053;-60
2023/07/07 06:55:40;;;;;;;7.38;2.63;;;15.80;99.90;;;;;;4851885;29;20045;-59
2023/07/07 06:58:13;;;;;;;23.95;4.40;;;15.80;99.90;;;;;;4839808;29;20053;-59
2023/07/07 07:00:43;;;;;;;10.43;3.00;;;15.90;99.90;;;;;;4861451;29;20049;-59
2023/07/07 07:03:11;;;;;;;7.43;2.50;;;15.90;99.90;;;;;;4849073;29;20397;-58
2023/07/07 07:05:40;;;;;;;29.52;4.72;;;16.00;99.90;;;;;;4834326;29;20057;-59
2023/07/07 07:08:08;;;;;;;19.13;3.72;;;16.10;99.90;;;;;;4842469;29;20061;-58
2023/07/07 07:10:36;;;;;;;25.98;4.20;;;16.10;99.90;;;;;;4850560;29;20053;-57
2023/07/07 07:13:04;;;;;;;16.00;3.15;;;16.20;99.90;;;;;;4846781;29;20060;-58
2023/07/07 07:15:32;;;;;;;13.85;2.70;;;16.20;99.90;;;;;;4850235;29;20045;-58
2023/07/07 07:17:59;;;;;;;9.73;2.90;;;16.30;99.90;;;;;;4842144;29;20049;-59
2023/07/07 07:20:27;;;;;;;4.78;2.17;;;16.40;99.90;;;;;;4848849;29;20120;-58
2023/07/07 07:22:55;;;;;;;4.70;2.20;;;16.40;99.90;;;;;;4844946;29;20517;-58
2023/07/07 07:25:22;;;;;;;6.22;2.67;;;16.50;99.90;;;;;;4852175;29;20549;-59
2023/07/07 07:27:50;;;;;;;9.48;2.65;;;16.50;99.90;;;;;;4852028;29;20049;-58
2023/07/07 07:30:18;;;;;;;4.20;2.30;;;16.60;99.90;;;;;;4847508;29;20053;-59
2023/07/07 07:32:46;;;;;;;5.22;2.35;;;16.60;99.90;;;;;;4864235;29;20045;-59
2023/07/07 07:35:14;;;;;;;6.07;2.40;;;16.70;99.90;;;;;;4845243;29;20531;-60
2023/07/07 07:37:42;;;;;;;5.18;2.75;;;16.80;99.90;;;;;;4840490;29;20049;-59
2023/07/07 07:40:10;;;;;;;8.23;2.30;;;16.80;99.90;;;;;;4855278;29;20053;-59
2023/07/07 07:42:38;;;;;;;6.15;2.35;;;16.90;99.90;;;;;;4855084;29;20402;-59
2023/07/07 07:45:06;;;;;;;4.30;2.20;;;17.00;99.90;;;;;;4854208;29;20060;-59
2023/07/07 07:47:34;;;;;;;6.28;1.95;;;17.10;99.90;;;;;;4858373;29;20050;-58
2023/07/07 07:50:03;;;;;;;6.32;2.35;;;17.10;99.90;;;;;;4858668;29;20065;-58
2023/07/07 07:52:31;;;;;;;4.13;1.87;;;17.20;99.90;;;;;;4859893;29;20468;-58
2023/07/07 07:54:59;;;;;;;4.93;2.25;;;17.30;99.90;;;;;;4855392;29;20305;-60
2023/07/07 07:57:27;;;;;;;4.35;1.90;;;17.30;99.90;;;;;;4857163;29;20049;-59
2023/07/07 07:59:54;;;;;;;4.97;1.92;;;17.20;99.90;;;;;;4857709;29;20055;-60
2023/07/07 08:02:23;;;;;;;5.03;1.67;;;17.50;99.90;;;;;;4858017;29;20065;-61
2023/07/07 08:04:51;;;;;;;4.45;1.60;;;17.50;99.90;;;;;;4858686;29;20056;-61
2023/07/07 08:07:19;;;;;;;4.40;1.60;;;17.60;99.90;;;;;;4855111;29;20418;-59
2023/07/07 08:09:46;;;;;;;3.03;1.67;;;17.60;99.90;;;;;;4856423;29;20042;-61
2023/07/07 08:12:14;;;;;;;4.78;2.00;;;17.70;99.90;;;;;;4855307;29;20588;-61
2023/07/07 08:14:42;;;;;;;8.40;1.92;;;17.70;99.90;;;;;;4858332;29;20673;-59
2023/07/07 08:17:14;;;;;;;13.27;2.90;;;17.80;99.90;;;;;;4853756;29;20048;-59
2023/07/07 08:19:44;;;;;;;5.13;1.80;;;17.90;99.90;;;;;;4854892;29;20482;-65
2023/07/07 08:22:20;;;;;;;14.88;3.08;;;17.90;99.90;;;;;;4852552;29;20046;-58
2023/07/07 08:24:52;;;;;;;12.82;2.38;;;18.00;99.90;;;;;;4858310;29;20070;-63
2023/07/07 08:27:22;;;;;;;8.98;2.47;;;18.10;99.90;;;;;;4857199;29;20057;-66
2023/07/07 08:29:53;;;;;;;4.13;1.63;;;18.10;99.90;;;;;;4854310;29;20049;-60
2023/07/07 08:32:23;;;;;;;8.77;1.83;;;18.20;99.90;;;;;;4856038;29;20056;-58
2023/07/07 08:34:52;;;;;;;10.20;2.10;;;18.30;99.90;;;;;;4857515;29;20057;-58
2023/07/07 08:37:25;;;;;;;3.10;1.60;;;18.40;99.90;;;;;;4853552;29;20049;-59
2023/07/07 08:39:54;;;;;;;19.17;2.85;;;18.40;99.90;;;;;;4857155;29;20053;-59
2023/07/07 08:42:28;;;;;;;12.68;2.40;;;18.50;99.90;;;;;;4854300;29;20041;-58
2023/07/07 08:44:59;;;;;;;5.50;2.00;;;18.50;99.90;;;;;;4857090;29;20053;-58
2023/07/07 08:47:46;;;;;;;4.28;1.70;;;18.60;99.90;;;;;;4856621;29;20066;-59
2023/07/07 08:50:29;;;;;;;22.25;2.17;;;18.60;99.90;;;;;;4870562;29;20049;-61
2023/07/07 08:53:03;;;;;;;16.17;2.17;;;18.70;99.90;;;;;;4851262;29;20049;-59
2023/07/07 08:56:06;;;;;;;10.95;2.53;;;18.80;99.90;;;;;;4855792;29;20057;-59
2023/07/07 08:58:50;;;;;;;5.85;1.83;;;18.80;99.90;;;;;;4861810;29;20576;-58
2023/07/07 09:01:46;;;;;;;4.60;1.70;;;19.10;99.90;;;;;;4858056;29;20053;-58
2023/07/07 09:04:27;;;;;;;6.57;2.17;;;19.00;99.90;;;;;;4855559;29;20072;-58
2023/07/07 09:07:32;;;;;;;6.25;1.45;;;19.20;99.90;;;;;;4855829;29;20395;-59
2023/07/07 09:10:12;;;;;;;5.35;1.60;;;19.30;99.90;;;;;;4846735;29;20053;-57
2023/07/07 09:12:45;;;;;;;13.20;1.88;;;19.40;99.90;;;;;;4856167;29;20058;-59
2023/07/07 09:15:23;;;;;;;26.58;4.20;;;19.50;99.90;;;;;;4854624;29;20418;-58
2023/07/07 09:18:17;;;;;;;4.75;1.52;;;19.50;99.90;;;;;;4857140;29;20159;-62
2023/07/07 09:20:50;;;;;;;3.00;1.27;;;19.60;99.90;;;;;;4855867;29;20060;-58
2023/07/07 09:23:24;;;;;;;17.52;2.25;;;19.70;99.90;;;;;;4852423;29;20050;-61
2023/07/07 09:26:03;;;;;;;18.13;2.10;;;19.70;99.90;;;;;;4853407;29;20070;-57
2023/07/07 09:28:36;;;;;;;4.45;1.63;;;19.80;99.90;;;;;;4855138;29;20041;-58
2023/07/07 09:31:22;;;;;;;5.70;1.55;;;19.80;99.90;;;;;;4854194;29;20514;-58
2023/07/07 09:33:51;;;;;;;4.85;1.63;;;19.90;99.90;;;;;;4856241;29;20064;-58
2023/07/07 09:36:33;;;;;;;4.20;1.35;;;20.00;99.90;;;;;;4856012;29;20076;-58
2023/07/07 09:39:32;;;;;;;4.45;1.27;;;20.00;99.90;;;;;;4842674;29;20062;-58
2023/07/07 09:42:25;;;;;;;6.03;1.08;;;20.10;99.90;;;;;;4849943;29;20791;-59
2023/07/07 09:45:20;;;;;;;16.02;2.03;;;20.20;99.90;;;;;;4849536;29;20057;-62
2023/07/07 09:48:27;;;;;;;5.85;1.80;;;20.30;99.90;;;;;;4855948;29;20053;-58
2023/07/07 09:51:13;;;;;;;9.60;1.70;;;20.50;99.90;;;;;;4852643;29;20050;-59
2023/07/07 09:53:41;;;;;;;4.18;1.35;;;20.70;99.90;;;;;;4853716;29;20049;-58
2023/07/07 09:56:24;;;;;;;39.60;3.60;;;20.90;99.90;;;;;;4856876;29;20533;-58
2023/07/07 09:59:16;;;;;;;8.40;1.55;;;20.90;99.90;;;;;;4855971;29;20053;-58
2023/07/07 10:01:48;;;;;;;3.67;1.50;;;20.90;99.90;;;;;;4856411;29;20391;-58
2023/07/07 10:04:19;;;;;;;2.22;1.25;;;21.00;99.90;;;;;;4856313;29;20490;-60
2023/07/07 10:06:53;;;;;;;7.03;1.80;;;20.90;99.90;;;;;;4856375;29;20311;-58
2023/07/07 10:09:20;;;;;;;7.13;2.15;;;21.10;99.90;;;;;;4845078;29;20042;-62
2023/07/07 10:11:49;;;;;;;3.00;1.33;;;21.20;99.90;;;;;;4855192;29;20399;-58
2023/07/07 10:14:20;;;;;;;2.97;1.20;;;21.40;99.90;;;;;;4852666;29;20042;-60
2023/07/07 10:16:50;;;;;;;4.75;1.40;;;21.50;99.90;;;;;;4855232;29;20057;-58
2023/07/07 10:19:19;;;;;;;1.63;1.20;;;21.70;99.90;;;;;;4855939;29;20053;-59
2023/07/07 10:21:47;;;;;;;5.38;1.48;;;21.90;99.90;;;;;;4855803;29;20430;-59
2023/07/07 10:24:15;;;;;;;2.45;1.30;;;22.00;99.90;;;;;;4854437;29;20057;-60
2023/07/07 10:26:47;;;;;;;1.88;1.02;;;22.20;99.90;;;;;;4856045;29;20054;-58
2023/07/07 10:29:18;;;;;;;12.70;1.63;;;22.20;99.90;;;;;;4855990;29;20545;-59
2023/07/07 10:31:49;;;;;;;5.45;1.30;;;22.30;99.90;;;;;;4855855;29;20054;-59
2023/07/07 10:34:35;;;;;;;10.23;1.42;;;22.90;99.90;;;;;;4870216;29;20050;-59
2023/07/07 10:37:14;;;;;;;3.60;1.17;;;22.30;99.90;;;;;;4840068;29;20049;-58
2023/07/07 10:39:42;;;;;;;3.50;1.30;;;22.40;99.90;;;;;;4851088;29;20057;-59
2023/07/07 10:42:11;;;;;;;10.13;1.63;;;22.50;99.90;;;;;;4853666;29;20057;-58
2023/07/07 10:44:39;;;;;;;5.65;1.50;;;22.70;99.90;;;;;;4837903;29;20305;-62
2023/07/07 10:47:09;;;;;;;2.60;1.17;;;22.80;99.90;;;;;;4853388;29;20064;-59
2023/07/07 10:49:50;;;;;;;4.20;1.40;;;22.90;99.90;;;;;;4853490;29;20052;-58
2023/07/07 10:52:49;;;;;;;12.30;2.13;;;23.10;99.90;;;;;;4853658;29;20057;-59
2023/07/07 10:55:55;;;;;;;9.80;1.60;;;23.30;99.60;;;;;;4850983;29;20053;-59
2023/07/07 10:58:51;;;;;;;4.15;1.13;;;23.40;99.20;;;;;;4852088;29;20622;-60
2023/07/07 11:01:41;;;;;;;11.95;1.75;;;23.40;98.40;;;;;;4852295;29;20060;-58
2023/07/07 11:04:11;;;;;;;7.07;1.60;;;23.50;98.60;;;;;;4851392;29;20058;-62
2023/07/07 11:07:05;;;;;;;1.92;1.05;;;23.60;98.60;;;;;;4850959;29;20050;-58
2023/07/07 11:10:01;;;;;;;2.00;1.25;;;23.70;97.90;;;;;;4850397;29;20062;-58
2023/07/07 11:12:39;;;;;;;3.33;1.13;;;23.80;97.90;;;;;;4848745;29;20046;-59
2023/07/07 11:15:29;;;;;;;2.40;1.23;;;23.90;97.90;;;;;;4850332;29;20053;-60
2023/07/07 11:18:06;;;;;;;1.98;1.20;;;23.90;97.10;;;;;;4850372;29;20510;-58
2023/07/07 11:20:52;;;;;;;2.72;1.40;;;24.00;96.80;;;;;;4851671;29;20049;-59
2023/07/07 11:23:42;;;;;;;2.13;1.25;;;24.10;97.10;;;;;;4854667;29;20057;-59
2023/07/07 11:26:44;;;;;;;3.85;1.27;;;24.20;96.60;;;;;;4872438;29;20052;-58
2023/07/07 11:29:40;;;;;;;2.80;1.23;;;24.30;96.70;;;;;;4853583;29;20060;-60
2023/07/07 11:33:00;;;;;;;6.60;1.50;;;24.30;97.00;;;;;;4853506;29;20056;-68
2023/07/07 11:36:19;;;;;;;6.60;1.52;;;24.50;97.00;;;;;;4824486;29;20064;-63
2023/07/07 11:38:49;;;;;;;3.17;1.30;;;24.70;96.70;;;;;;4864134;29;20494;-60
2023/07/07 11:41:35;;;;;;;19.38;2.92;;;24.80;95.90;;;;;;4848008;29;20050;-57
2023/07/07 11:44:12;;;;;;;7.22;1.42;;;25.00;95.10;;;;;;4866171;29;20045;-58
2023/07/07 11:47:09;;;;;;;2.88;1.55;;;25.00;94.60;;;;;;4855050;29;20050;-59
2023/07/07 11:49:47;;;;;;;2.80;1.30;;;24.90;94.60;;;;;;4853686;29;20064;-60
2023/07/07 11:52:30;;;;;;;25.85;3.22;;;25.10;94.70;;;;;;4854964;29;20061;-60
2023/07/07 11:55:40;;;;;;;5.90;1.73;;;25.20;94.10;;;;;;4851414;29;20667;-59
2023/07/07 11:58:39;;;;;;;2.45;1.40;;;25.40;93.90;;;;;;4854703;29;20057;-69
2023/07/07 12:01:33;;;;;;;2.63;1.40;;;25.70;93.70;;;;;;4854380;29;20537;-65
2023/07/07 12:04:34;;;;;;;2.28;1.40;;;26.00;92.90;;;;;;4855282;29;20061;-62
2023/07/07 12:07:11;;;;;;;3.88;1.30;;;26.20;92.90;;;;;;4854939;29;20061;-60
2023/07/07 12:10:12;;;;;;;10.05;1.50;;;26.60;92.60;;;;;;4844175;29;20513;-67
2023/07/07 12:12:45;;;;;;;3.80;1.70;;;26.70;91.70;;;;;;4857072;29;20065;-59
2023/07/07 12:15:15;;;;;;;55.78;4.05;;;26.90;90.80;;;;;;4843377;29;20332;-59
2023/07/07 12:18:02;;;;;;;12.55;2.00;;;27.10;90.60;;;;;;4838812;29;20653;-60
2023/07/07 12:20:35;;;;;;;13.48;2.20;;;27.20;90.80;;;;;;4839470;29;20049;-59
2023/07/07 12:23:08;;;;;;;3.50;1.63;;;27.30;90.10;;;;;;4845325;29;20049;-59
2023/07/07 12:25:36;;;;;;;5.07;1.70;;;27.40;90.40;;;;;;4850225;29;20049;-59
2023/07/07 12:28:05;;;;;;;3.38;1.27;;;27.60;89.20;;;;;;4854072;29;20542;-62
2023/07/07 12:30:46;;;;;;;2.67;1.35;;;27.80;88.60;;;;;;4854841;29;20068;-61
2023/07/07 12:33:16;;;;;;;3.28;1.70;;;28.00;86.90;;;;;;4853872;29;20054;-60
2023/07/07 12:35:52;;;;;;;2.35;1.65;;;28.20;86.90;;;;;;4853623;29;20065;-60
2023/07/07 12:38:30;;;;;;;2.08;1.35;;;28.50;86.80;;;;;;4836823;29;20510;-59
2023/07/07 12:41:11;;;;;;;1.75;1.25;;;28.40;84.00;;;;;;4846256;29;20065;-60
2023/07/07 12:43:44;;;;;;;3.15;1.52;;;28.40;85.30;;;;;;4852296;29;20060;-63
2023/07/07 12:46:18;;;;;;;6.85;1.80;;;28.60;84.60;;;;;;4841779;29;20057;-60
2023/07/07 12:48:46;;;;;;;2.00;1.48;;;28.80;82.60;;;;;;4847696;29;20406;-60
2023/07/07 12:51:17;;;;;;;4.57;2.20;;;28.90;81.00;;;;;;4851777;29;20788;-60
2023/07/07 12:53:48;;;;;;;3.85;1.48;;;28.90;81.50;;;;;;4854072;29;20049;-60
2023/07/07 12:56:19;;;;;;;16.35;2.13;;;29.10;82.30;;;;;;4848721;29;20779;-59
2023/07/07 12:58:49;;;;;;;3.42;1.52;;;29.20;81.80;;;;;;4851864;29;20053;-59
2023/07/07 13:01:36;;;;;;;3.72;1.50;;;29.30;81.10;;;;;;4852691;29;20060;-60
2023/07/07 13:04:07;;;;;;;4.72;1.70;;;29.40;80.80;;;;;;4850624;29;20064;-60
2023/07/07 13:06:39;;;;;;;3.50;1.70;;;29.40;79.10;;;;;;4844738;29;20053;-60
2023/07/07 13:09:13;;;;;;;3.67;1.35;;;29.40;78.50;;;;;;4868039;29;20498;-59
2023/07/07 13:11:44;;;;;;;4.32;1.55;;;29.50;80.00;;;;;;4843899;29;20495;-60
2023/07/07 13:14:29;;;;;;;2.97;1.60;;;29.70;77.90;;;;;;4848767;29;20075;-60
2023/07/07 13:16:58;;;;;;;3.75;1.48;;;29.80;76.90;;;;;;4851741;29;20052;-60
2023/07/07 13:19:28;;;;;;;2.35;1.40;;;29.70;76.40;;;;;;4852834;29;20053;-60